createdAt,value
2022-10-02T00:00:50.265Z,99764.88
2022-10-02T00:03:21.864Z,99769.31
2022-10-02T00:05:58.550Z,99762.53
2022-10-02T00:08:30.491Z,99759.91
2022-10-02T00:11:01.040Z,99766.22
2022-10-02T00:13:37.722Z,99770.75
2022-10-02T00:16:10.086Z,99763.59
2022-10-02T00:18:37.324Z,99765.00
2022-10-02T00:21:18.084Z,99775.84
2022-10-02T00:23:58.819Z,99774.13
2022-10-02T00:26:31.265Z,99769.28
2022-10-02T00:29:14.061Z,99772.19
2022-10-02T00:31:50.592Z,99771.06
2022-10-02T00:34:41.208Z,99770.94
2022-10-02T00:37:23.640Z,99775.81
2022-10-02T00:40:34.718Z,99774.16
2022-10-02T00:43:23.539Z,99764.84
2022-10-02T00:46:06.022Z,99768.34
2022-10-02T00:48:47.665Z,99774.50
2022-10-02T00:51:31.891Z,99781.50
2022-10-02T00:54:16.168Z,99776.97
2022-10-02T00:57:03.867Z,99786.22
2022-10-02T00:59:42.300Z,99782.09
2022-10-02T01:02:22.687Z,99793.91
2022-10-02T01:04:50.542Z,99790.16
2022-10-02T01:07:16.994Z,99792.19
2022-10-02T01:09:44.168Z,99788.38
2022-10-02T01:12:11.053Z,99792.91
2022-10-02T01:14:39.533Z,99787.25
2022-10-02T01:17:07.939Z,99786.03
2022-10-02T01:19:39.330Z,99793.34
2022-10-02T01:22:28.067Z,99798.72
2022-10-02T01:24:55.380Z,99791.44
2022-10-02T01:27:23.583Z,99798.84
2022-10-02T01:29:57.093Z,99799.34
2022-10-02T01:32:25.989Z,99788.03
2022-10-02T01:34:56.539Z,99791.66
2022-10-02T01:37:25.665Z,99796.97
2022-10-02T01:39:52.290Z,99790.22
2022-10-02T01:42:20.033Z,99797.06
2022-10-02T01:44:46.839Z,99798.31
2022-10-02T01:47:20.239Z,99794.38
2022-10-02T01:49:49.616Z,99798.16
2022-10-02T01:52:15.960Z,99802.50
2022-10-02T01:55:19.950Z,99799.53
2022-10-02T01:57:53.108Z,99801.00
2022-10-02T02:00:22.987Z,99813.97
2022-10-02T02:03:43.436Z,99812.81
2022-10-02T02:06:18.562Z,99802.34
2022-10-02T02:09:05.851Z,99803.69
2022-10-02T02:11:33.728Z,99807.44
2022-10-02T02:14:33.471Z,99814.56
2022-10-02T02:17:08.815Z,99820.72
2022-10-02T02:19:41.106Z,99822.25
2022-10-02T02:22:24.892Z,99819.44
2022-10-02T02:25:07.278Z,99820.72
2022-10-02T02:27:37.964Z,99824.47
2022-10-02T02:30:07.835Z,99819.53
2022-10-02T02:32:36.464Z,99825.66
2022-10-02T02:35:27.778Z,99821.91
2022-10-02T02:37:57.176Z,99823.38
2022-10-02T02:40:29.877Z,99817.44
2022-10-02T02:43:00.987Z,99829.16
2022-10-02T02:45:30.529Z,99827.25
2022-10-02T02:48:06.213Z,99830.63
2022-10-02T02:50:47.662Z,99826.50
2022-10-02T02:53:19.653Z,99840.47
2022-10-02T02:55:58.535Z,99835.44
2022-10-02T02:58:37.211Z,99833.59
2022-10-02T03:01:03.737Z,99839.88
2022-10-02T03:03:30.260Z,99843.91
2022-10-02T03:06:04.504Z,99838.00
2022-10-02T03:08:36.398Z,99841.34
2022-10-02T03:11:13.684Z,99835.66
2022-10-02T03:13:39.999Z,99834.53
2022-10-02T03:16:44.672Z,99833.09
2022-10-02T03:19:16.402Z,99839.06
2022-10-02T03:21:55.638Z,99832.19
2022-10-02T03:24:39.344Z,99839.53
2022-10-02T03:27:12.673Z,99842.13
2022-10-02T03:29:46.660Z,99837.91
2022-10-02T03:32:15.411Z,99844.69
2022-10-02T03:34:42.047Z,99854.94
2022-10-02T03:37:08.628Z,99845.16
2022-10-02T03:39:35.117Z,99856.06
2022-10-02T03:42:01.750Z,99848.09
2022-10-02T03:44:28.272Z,99841.88
2022-10-02T03:46:55.600Z,99845.53
2022-10-02T03:49:22.083Z,99847.09
2022-10-02T03:51:48.551Z,99850.06
2022-10-02T03:54:18.695Z,99851.47
2022-10-02T03:56:58.165Z,99857.44
2022-10-02T03:59:37.193Z,99854.34
2022-10-02T04:02:07.985Z,99857.31
2022-10-02T04:04:48.307Z,99867.41
2022-10-02T04:07:20.350Z,99865.88
2022-10-02T04:09:52.195Z,99864.59
2022-10-02T04:12:22.922Z,99864.94
2022-10-02T04:15:28.290Z,99867.91
2022-10-02T04:17:59.954Z,99855.03
2022-10-02T04:20:37.299Z,99854.41
2022-10-02T04:23:12.894Z,99856.16
2022-10-02T04:25:44.305Z,99857.97
2022-10-02T04:28:16.512Z,99867.88
2022-10-02T04:30:44.192Z,99851.28
2022-10-02T04:33:20.909Z,99854.75
2022-10-02T04:35:53.809Z,99862.59
2022-10-02T04:38:27.293Z,99863.00
2022-10-02T04:41:08.667Z,99862.81
2022-10-02T04:43:43.787Z,99862.00
2022-10-02T04:46:19.578Z,99870.03
2022-10-02T04:49:24.023Z,99868.91
2022-10-02T04:52:01.994Z,99879.56
2022-10-02T04:57:48.672Z,99879.50
2022-10-02T05:00:20.841Z,99882.13
2022-10-02T05:03:15.407Z,99885.94
2022-10-02T05:06:06.327Z,99889.75
2022-10-02T05:08:44.206Z,99887.47
2022-10-02T05:11:35.568Z,99892.03
2022-10-02T05:14:15.423Z,99888.63
2022-10-02T05:17:04.400Z,99892.78
2022-10-02T05:20:22.779Z,99901.75
2022-10-02T05:23:11.900Z,99893.56
2022-10-02T05:25:46.122Z,99897.34
2022-10-02T05:28:37.411Z,99893.06
2022-10-02T05:31:18.041Z,99902.16
2022-10-02T05:34:04.199Z,99914.69
2022-10-02T05:36:40.131Z,99901.94
2022-10-02T05:39:18.667Z,99905.34
2022-10-02T05:41:48.339Z,99905.63
2022-10-02T05:44:27.336Z,99912.16
2022-10-02T05:47:15.157Z,99910.34
2022-10-02T05:49:48.842Z,99913.41
2022-10-02T05:52:21.109Z,99927.91
2022-10-02T05:54:54.099Z,99923.50
2022-10-02T05:57:37.104Z,99926.13
2022-10-02T06:00:45.329Z,99928.72
2022-10-02T06:03:23.091Z,99932.78
2022-10-02T06:06:01.063Z,99934.47
2022-10-02T06:08:35.791Z,99931.56
2022-10-02T06:11:32.357Z,99931.19
2022-10-02T06:14:12.913Z,99929.78
2022-10-02T06:16:44.101Z,99929.91
2022-10-02T06:19:25.749Z,99934.38
2022-10-02T06:22:00.241Z,99936.47
2022-10-02T06:25:05.381Z,99927.16
2022-10-02T06:27:39.772Z,99928.25
2022-10-02T06:30:10.869Z,99929.78
2022-10-02T06:32:49.010Z,99934.88
2022-10-02T06:35:17.044Z,99936.06
2022-10-02T06:38:05.335Z,99931.28
2022-10-02T06:40:43.627Z,99929.50
2022-10-02T06:43:19.314Z,99937.06
2022-10-02T06:46:22.806Z,99943.28
2022-10-02T06:49:09.677Z,99931.69
2022-10-02T06:51:44.020Z,99929.09
2022-10-02T06:54:22.140Z,99943.13
2022-10-02T06:57:17.791Z,99936.03
2022-10-02T06:59:55.689Z,99944.63
2022-10-02T07:03:00.400Z,99946.31
2022-10-02T07:05:34.933Z,99948.19
2022-10-02T07:08:12.088Z,99945.50
2022-10-02T07:10:56.677Z,99952.69
2022-10-02T07:13:32.394Z,99951.88
2022-10-02T07:16:31.064Z,99964.81
2022-10-02T07:19:11.366Z,99963.88
2022-10-02T07:21:50.349Z,99970.75
2022-10-02T07:24:31.074Z,99965.41
2022-10-02T07:27:18.922Z,99965.59
2022-10-02T07:29:58.239Z,99955.75
2022-10-02T07:32:38.809Z,99973.34
2022-10-02T07:35:27.835Z,99965.44
2022-10-02T07:38:15.317Z,99969.69
2022-10-02T07:40:41.897Z,99969.22
2022-10-02T07:43:33.010Z,99972.94
2022-10-02T07:46:09.871Z,99966.25
2022-10-02T07:48:45.682Z,99977.34
2022-10-02T07:51:33.874Z,99970.94
2022-10-02T07:54:32.869Z,99996.63
2022-10-02T07:57:15.164Z,99989.09
2022-10-02T07:59:43.691Z,100002.75
2022-10-02T08:02:33.232Z,100006.91
2022-10-02T08:05:04.217Z,99998.59
2022-10-02T08:07:31.507Z,99995.19
2022-10-02T08:10:00.499Z,99991.78
2022-10-02T08:12:32.289Z,99988.72
2022-10-02T08:14:59.341Z,100005.81
2022-10-02T08:17:51.495Z,100009.22
2022-10-02T08:20:29.920Z,100010.28
2022-10-02T08:23:03.660Z,100007.97
2022-10-02T08:25:48.728Z,100010.69
2022-10-02T08:28:28.013Z,100008.06
2022-10-02T08:30:54.524Z,100001.69
2022-10-02T08:33:25.701Z,99988.03
2022-10-02T08:36:18.411Z,100016.09
2022-10-02T08:38:54.588Z,100014.94
2022-10-02T08:41:27.913Z,100023.28
2022-10-02T08:44:00.163Z,100023.63
2022-10-02T08:46:58.365Z,100030.44
2022-10-02T08:49:41.029Z,100025.91
2022-10-02T08:52:43.369Z,100024.69
2022-10-02T08:55:30.091Z,100035.25
2022-10-02T08:58:03.943Z,100025.47
2022-10-02T09:00:37.529Z,100008.78
2022-10-02T09:03:54.941Z,100017.94
2022-10-02T09:07:13.621Z,100013.03
2022-10-02T09:09:42.896Z,100015.59
2022-10-02T09:12:33.600Z,100021.69
2022-10-02T09:15:34.487Z,100009.09
2022-10-02T09:18:22.626Z,100012.66
2022-10-02T09:21:01.024Z,100003.84
2022-10-02T09:23:58.575Z,100006.91
2022-10-02T09:27:02.924Z,100001.22
2022-10-02T09:29:58.740Z,100003.19
2022-10-02T09:32:53.021Z,100001.28
2022-10-02T09:35:57.668Z,99993.72
2022-10-02T09:38:45.836Z,99994.09
2022-10-02T09:41:28.554Z,100011.16
2022-10-02T09:44:14.215Z,99993.22
2022-10-02T09:47:05.137Z,100003.03
2022-10-02T09:49:34.825Z,100005.19
2022-10-02T09:52:16.576Z,100017.53
2022-10-02T09:55:11.772Z,100022.69
2022-10-02T09:58:06.779Z,100022.69
2022-10-02T10:00:52.143Z,100016.25
2022-10-02T10:03:45.449Z,100019.00
2022-10-02T10:06:30.548Z,100010.78
2022-10-02T10:09:15.273Z,100021.69
2022-10-02T10:12:19.273Z,100034.81
2022-10-02T10:15:23.744Z,100032.22
2022-10-02T10:18:04.138Z,100029.88
2022-10-02T10:20:51.713Z,100032.41
2022-10-02T10:23:41.528Z,100028.56
2022-10-02T10:26:33.226Z,100037.59
2022-10-02T10:29:27.533Z,100034.41
2022-10-02T10:32:12.025Z,100031.66
2022-10-02T10:35:09.756Z,100039.25
2022-10-02T10:38:30.100Z,100016.94
2022-10-02T10:41:14.863Z,100026.72
2022-10-02T10:43:59.431Z,100032.09
2022-10-02T10:46:44.883Z,100032.31
2022-10-02T10:49:35.196Z,100026.53
2022-10-02T10:52:14.166Z,100033.00
2022-10-02T10:55:13.589Z,100039.50
2022-10-02T10:57:56.684Z,100038.66
2022-10-02T11:00:29.781Z,100034.69
2022-10-02T11:03:08.607Z,100040.59
2022-10-02T11:05:53.369Z,100047.84
2022-10-02T11:08:50.015Z,100044.00
2022-10-02T11:11:23.175Z,100047.63
2022-10-02T11:14:16.573Z,100046.31
2022-10-02T11:17:06.166Z,100051.84
2022-10-02T11:19:57.571Z,100041.03
2022-10-02T11:23:09.152Z,100042.34
2022-10-02T11:25:49.012Z,100045.47
2022-10-02T11:28:37.346Z,100048.91
2022-10-02T11:31:30.028Z,100037.72
2022-10-02T11:34:16.698Z,100044.03
2022-10-02T11:37:05.811Z,100050.69
2022-10-02T11:39:44.547Z,100055.34
2022-10-02T11:42:23.002Z,100045.75
2022-10-02T11:45:14.551Z,100043.56
2022-10-02T11:48:13.458Z,100050.84
2022-10-02T11:50:44.856Z,100049.56
2022-10-02T11:53:48.255Z,100047.25
2022-10-02T11:56:23.906Z,100040.88
2022-10-02T11:59:18.319Z,100047.09
2022-10-02T12:01:52.882Z,100050.75
2022-10-02T12:04:31.624Z,100051.13
2022-10-02T12:07:15.017Z,100062.59
2022-10-02T12:09:50.668Z,100057.19
2022-10-02T12:12:51.481Z,100057.31
2022-10-02T12:15:34.210Z,100068.66
2022-10-02T12:18:03.580Z,100069.31
2022-10-02T12:20:57.364Z,100062.75
2022-10-02T12:24:05.938Z,100074.63
2022-10-02T12:26:53.956Z,100074.09
2022-10-02T12:29:29.160Z,100074.53
2022-10-02T12:32:36.433Z,100073.53
2022-10-02T12:35:23.067Z,100062.44
2022-10-02T12:38:01.822Z,100063.28
2022-10-02T12:40:41.711Z,100054.19
2022-10-02T12:43:45.914Z,100064.09
2022-10-02T12:46:40.316Z,100057.41
2022-10-02T12:49:21.546Z,100055.44
2022-10-02T12:52:07.076Z,100040.34
2022-10-02T12:55:04.223Z,100055.13
2022-10-02T12:57:51.878Z,100047.94
2022-10-02T13:00:19.787Z,100048.63
2022-10-02T13:03:25.185Z,100034.63
2022-10-02T13:06:00.881Z,100047.47
2022-10-02T13:08:38.094Z,100044.88
2022-10-02T13:11:07.155Z,100034.28
2022-10-02T13:13:49.890Z,100040.25
2022-10-02T13:16:48.808Z,100036.06
2022-10-02T13:19:35.982Z,100030.88
2022-10-02T13:22:49.380Z,100030.06
2022-10-02T13:25:33.290Z,100039.13
2022-10-02T13:28:01.365Z,100036.16
2022-10-02T13:30:35.870Z,100042.19
2022-10-02T13:33:25.151Z,100036.06
2022-10-02T13:36:08.432Z,100044.69
2022-10-02T13:38:48.659Z,100042.16
2022-10-02T13:41:27.092Z,100045.28
2022-10-02T13:44:03.329Z,100048.06
2022-10-02T13:46:44.673Z,100062.72
2022-10-02T13:49:18.109Z,100070.38
2022-10-02T13:52:12.565Z,100085.09
2022-10-02T13:54:53.950Z,100078.75
2022-10-02T13:58:08.631Z,100081.44
2022-10-02T14:00:37.672Z,100068.59
2022-10-02T14:03:07.242Z,100073.06
2022-10-02T14:05:37.023Z,100065.66
2022-10-02T14:08:29.733Z,100064.38
2022-10-02T14:11:22.195Z,100065.34
2022-10-02T14:13:59.066Z,100067.88
2022-10-02T14:17:02.047Z,100065.44
2022-10-02T14:19:35.604Z,100064.28
2022-10-02T14:22:16.038Z,100059.88
2022-10-02T14:25:08.384Z,100060.69
2022-10-02T14:28:05.806Z,100047.19
2022-10-02T14:30:50.474Z,100050.94
2022-10-02T14:33:42.256Z,100041.50
2022-10-02T14:36:34.502Z,100039.75
2022-10-02T14:39:39.691Z,100031.06
2022-10-02T14:42:30.956Z,100045.28
2022-10-02T14:45:21.329Z,100043.75
2022-10-02T14:48:10.292Z,100045.09
2022-10-02T14:50:49.180Z,100034.09
2022-10-02T14:53:34.098Z,100035.75
2022-10-02T14:56:09.037Z,100026.78
2022-10-02T14:58:56.783Z,100028.25
2022-10-02T15:01:24.574Z,100032.94
2022-10-02T15:04:08.078Z,100035.81
2022-10-02T15:07:05.338Z,100033.31
2022-10-02T15:10:18.306Z,100032.63
2022-10-02T15:13:01.963Z,100030.81
2022-10-02T15:16:14.505Z,100029.78
2022-10-02T15:18:50.804Z,100034.50
2022-10-02T15:21:39.805Z,100023.16
2022-10-02T15:24:39.379Z,100031.00
2022-10-02T15:27:33.257Z,100033.59
2022-10-02T15:30:08.493Z,100026.19
2022-10-02T15:32:44.286Z,100021.06
2022-10-02T15:35:45.318Z,100016.25
2022-10-02T15:38:34.505Z,100018.66
2022-10-02T15:41:13.098Z,100019.41
2022-10-02T15:44:21.488Z,100020.38
2022-10-02T15:46:50.834Z,100013.03
2022-10-02T15:49:27.994Z,100017.69
2022-10-02T15:52:10.280Z,100011.75
2022-10-02T15:54:39.514Z,100011.06
2022-10-02T15:57:13.527Z,100012.97
2022-10-02T15:59:45.685Z,100003.44
2022-10-02T16:02:36.009Z,100004.75
2022-10-02T16:05:19.015Z,99999.34
2022-10-02T16:07:51.545Z,100001.28
2022-10-02T16:10:29.083Z,100003.91
2022-10-02T16:13:32.855Z,100011.75
2022-10-02T16:16:26.421Z,100013.97
2022-10-02T16:19:11.539Z,100009.38
2022-10-02T16:22:18.407Z,100020.22
2022-10-02T16:24:59.311Z,100018.84
2022-10-02T16:27:50.577Z,100023.25
2022-10-02T16:30:18.745Z,100021.78
2022-10-02T16:33:21.792Z,100021.38
2022-10-02T16:36:11.616Z,100024.97
2022-10-02T16:38:48.890Z,100026.75
2022-10-02T16:41:38.732Z,100020.53
2022-10-02T16:44:43.433Z,100023.72
2022-10-02T16:47:18.402Z,100027.13
2022-10-02T16:49:54.072Z,100018.13
2022-10-02T16:52:26.961Z,100023.56
2022-10-02T16:54:59.567Z,100027.47
2022-10-02T16:57:35.123Z,100029.13
2022-10-02T17:00:07.864Z,100039.31
2022-10-02T17:02:43.480Z,100043.78
2022-10-02T17:05:29.035Z,100045.81
2022-10-02T17:08:10.245Z,100035.94
2022-10-02T17:10:55.776Z,100037.13
2022-10-02T17:13:30.324Z,100024.03
2022-10-02T17:16:03.199Z,100026.78
2022-10-02T17:18:40.953Z,100028.19
2022-10-02T17:21:24.311Z,100025.41
2022-10-02T17:24:16.619Z,100024.97
2022-10-02T17:26:52.247Z,100030.25
2022-10-02T17:29:44.708Z,100022.78
2022-10-02T17:32:11.223Z,100020.97
2022-10-02T17:34:49.166Z,100033.56
2022-10-02T17:37:18.570Z,100028.66
2022-10-02T17:39:53.744Z,100034.06
2022-10-02T17:42:44.153Z,100038.13
2022-10-02T17:45:22.118Z,100034.63
2022-10-02T17:48:26.771Z,100033.50
2022-10-02T17:51:03.234Z,100043.66
2022-10-02T17:54:05.971Z,100043.34
2022-10-02T17:56:55.810Z,100041.22
2022-10-02T18:00:13.792Z,100040.44
2022-10-02T18:02:43.257Z,100041.81
2022-10-02T18:05:27.709Z,100036.47
2022-10-02T18:08:18.807Z,100039.06
2022-10-02T18:11:04.034Z,100036.06
2022-10-02T18:13:48.691Z,100031.22
2022-10-02T18:16:33.645Z,100034.56
2022-10-02T18:19:14.749Z,100036.06
2022-10-02T18:21:53.840Z,100035.38
2022-10-02T18:24:39.629Z,100031.16
2022-10-02T18:27:47.664Z,100042.09
2022-10-02T18:30:22.191Z,100032.94
2022-10-02T18:33:01.697Z,100033.84
2022-10-02T18:35:50.294Z,100034.88
2022-10-02T18:38:30.669Z,100041.31
2022-10-02T18:41:20.427Z,100047.94
2022-10-02T18:44:02.471Z,100042.25
2022-10-02T18:46:40.803Z,100041.25
2022-10-02T18:49:45.313Z,100042.56
2022-10-02T18:52:32.900Z,100036.69
2022-10-02T18:55:41.896Z,100046.81
2022-10-02T18:58:42.776Z,100041.28
2022-10-02T19:01:56.762Z,100043.06
2022-10-02T19:05:08.356Z,100035.09
2022-10-02T19:07:42.258Z,100036.97
2022-10-02T19:10:27.147Z,100032.94
2022-10-02T19:12:57.963Z,100042.94
2022-10-02T19:15:33.518Z,100039.47
2022-10-02T19:18:03.011Z,100040.91
2022-10-02T19:20:49.498Z,100040.69
2022-10-02T19:23:27.931Z,100043.34
2022-10-02T19:26:04.806Z,100038.78
2022-10-02T19:28:31.882Z,100026.34
2022-10-02T19:31:07.021Z,100038.44
2022-10-02T19:33:42.132Z,100025.75
2022-10-02T19:36:15.819Z,100031.72
2022-10-02T19:38:49.488Z,100026.44
2022-10-02T19:41:16.056Z,100023.03
2022-10-02T19:43:48.184Z,100023.38
2022-10-02T19:46:18.171Z,100017.16
2022-10-02T19:48:44.778Z,100021.31
2022-10-02T19:51:21.522Z,100017.78
2022-10-02T19:54:13.301Z,100018.25
2022-10-02T19:56:44.562Z,100019.88
2022-10-02T19:59:19.725Z,100005.91
2022-10-02T20:01:54.284Z,100017.16
2022-10-02T20:04:43.457Z,100015.84
2022-10-02T20:07:14.923Z,100022.63
2022-10-02T20:09:51.452Z,100013.25
2022-10-02T20:12:28.918Z,100021.84
2022-10-02T20:15:42.936Z,100024.47
2022-10-02T20:18:11.604Z,100018.94
2022-10-02T20:20:39.333Z,100021.56
2022-10-02T20:23:13.050Z,100023.75
2022-10-02T20:25:43.278Z,100014.78
2022-10-02T20:28:18.412Z,100025.59
2022-10-02T20:31:02.286Z,100018.53
2022-10-02T20:33:35.382Z,100010.19
2022-10-02T20:36:03.163Z,100017.00
2022-10-02T20:38:41.138Z,100009.19
2022-10-02T20:41:29.108Z,100000.38
2022-10-02T20:44:02.350Z,100016.72
2022-10-02T20:47:04.026Z,100009.94
2022-10-02T20:49:53.559Z,100020.25
2022-10-02T20:52:34.412Z,100012.56
2022-10-02T20:55:18.184Z,100009.88
2022-10-02T20:58:01.131Z,100011.13
2022-10-02T21:00:36.645Z,100014.44
2022-10-02T21:03:31.091Z,100014.59
2022-10-02T21:06:15.963Z,100018.03
2022-10-02T21:09:02.472Z,100021.16
2022-10-02T21:11:42.535Z,100020.13
2022-10-02T21:14:22.726Z,100013.25
2022-10-02T21:17:07.682Z,100021.84
2022-10-02T21:20:01.937Z,99999.59
2022-10-02T21:23:00.069Z,100010.84
2022-10-02T21:25:50.051Z,100009.31
2022-10-02T21:28:25.778Z,100007.38
2022-10-02T21:31:15.496Z,100010.13
2022-10-02T21:33:49.502Z,99999.66
2022-10-02T21:36:22.524Z,100012.56
2022-10-02T21:39:23.299Z,100019.72
2022-10-02T21:42:10.687Z,100015.13
2022-10-02T21:44:58.214Z,100014.91
2022-10-02T21:47:50.671Z,100009.56
2022-10-02T21:50:27.931Z,100000.38
2022-10-02T21:53:32.618Z,100012.50
2022-10-02T21:56:14.850Z,100003.06
2022-10-02T21:59:04.067Z,100001.81
2022-10-02T22:02:04.103Z,100007.28
2022-10-02T22:04:44.153Z,99997.63
2022-10-02T22:07:36.771Z,99995.78
2022-10-02T22:10:38.817Z,99995.03
2022-10-02T22:13:09.726Z,100001.81
2022-10-02T22:15:44.070Z,100002.66
2022-10-02T22:18:30.389Z,99996.22
2022-10-02T22:21:26.545Z,100000.03
2022-10-02T22:24:02.941Z,100001.81
2022-10-02T22:26:48.331Z,100002.44
2022-10-02T22:29:22.218Z,100000.25
2022-10-02T22:32:41.739Z,100003.69
2022-10-02T22:35:23.477Z,99998.34
2022-10-02T22:38:11.564Z,99997.75
2022-10-02T22:41:09.403Z,99992.25
2022-10-02T22:43:50.057Z,99997.53
2022-10-02T22:46:40.446Z,99992.38
2022-10-02T22:49:19.341Z,99991.13
2022-10-02T22:52:00.270Z,99993.06
2022-10-02T22:54:33.216Z,99993.84
2022-10-02T22:57:10.899Z,99992.78
2022-10-02T22:59:39.696Z,99995.00
2022-10-02T23:02:31.055Z,99990.91
2022-10-02T23:05:18.825Z,99996.19
2022-10-02T23:07:49.634Z,99994.72
2022-10-02T23:10:31.825Z,99990.91
2022-10-02T23:13:09.695Z,99993.84
2022-10-02T23:15:45.594Z,99990.84
2022-10-02T23:18:16.717Z,99991.66
2022-10-02T23:20:50.281Z,99999.81
2022-10-02T23:23:23.695Z,99992.59
2022-10-02T23:26:13.857Z,99991.25
2022-10-02T23:28:55.511Z,99990.84
2022-10-02T23:31:31.582Z,99985.16
2022-10-02T23:34:04.132Z,99985.34
2022-10-02T23:36:35.167Z,99997.06
2022-10-02T23:39:12.181Z,99987.63
2022-10-02T23:41:47.161Z,99996.25
2022-10-02T23:44:26.969Z,99986.94
2022-10-02T23:47:02.163Z,99990.75
2022-10-02T23:49:39.027Z,99991.97
2022-10-02T23:52:16.440Z,99999.28
2022-10-02T23:55:04.867Z,100005.25
2022-10-02T23:57:56.303Z,100004.19
